EZY32W EGKK-EGCC
Flight info
| Callsign | EZY32W |
|---|---|
| Flight time | 0h 34m |
| Altitude | 20000 |
| Route | LAM N57 WELIN DCT TIMPO DCT ELVOS DCT TNT |
| Aircraft | A320/M-SDE3FGHIRWY/LB1 |
Departure
| Time | 2026-05-06 21:47 |
|---|---|
| Airport | London Gatwick Airport (EGKK) |
Arrival
| Time | 2026-05-06 22:21 |
|---|---|
| Airport | Manchester Airport (EGCC) |
| Time | Latitude | Longitude | Altitude | Speed | Heading |
|---|---|---|---|---|---|
| 2026-05-06 21:15 | 51.16003 | -0.17077 | 205 ft | 0 kts | 321° |
| 2026-05-06 21:30 | 51.16000 | -0.17073 | 205 ft | 2 kts | 320° |
| 2026-05-06 21:30 | 51.15987 | -0.17056 | 217 ft | 2 kts | 319° |
| 2026-05-06 21:30 | 51.15975 | -0.17038 | 212 ft | 2 kts | 314° |
| 2026-05-06 21:30 | 51.15964 | -0.17019 | 217 ft | 2 kts | 305° |
| 2026-05-06 21:31 | 51.15956 | -0.16996 | 217 ft | 2 kts | 279° |
| 2026-05-06 21:31 | 51.15957 | -0.16971 | 214 ft | 2 kts | 241° |
| 2026-05-06 21:31 | 51.15960 | -0.16962 | 212 ft | 0 kts | 239° |
| 2026-05-06 21:34 | 51.15959 | -0.16963 | 212 ft | 1 kts | 239° |
| 2026-05-06 21:34 | 51.15951 | -0.16984 | 216 ft | 2 kts | 235° |
| 2026-05-06 21:34 | 51.15922 | -0.17035 | 208 ft | 13 kts | 222° |
| 2026-05-06 21:34 | 51.15823 | -0.17106 | 209 ft | 15 kts | 224° |
| 2026-05-06 21:35 | 51.15798 | -0.17249 | 208 ft | 13 kts | 257° |
| 2026-05-06 21:35 | 51.15778 | -0.17394 | 205 ft | 14 kts | 258° |
| 2026-05-06 21:35 | 51.15752 | -0.17588 | 205 ft | 21 kts | 257° |
| 2026-05-06 21:35 | 51.15717 | -0.17849 | 209 ft | 27 kts | 258° |
| 2026-05-06 21:36 | 51.15679 | -0.18112 | 206 ft | 19 kts | 258° |
| 2026-05-06 21:36 | 51.15623 | -0.18237 | 208 ft | 9 kts | 168° |
| 2026-05-06 21:36 | 51.15516 | -0.18204 | 213 ft | 21 kts | 168° |
| 2026-05-06 21:36 | 51.15373 | -0.18144 | 207 ft | 22 kts | 168° |
| 2026-05-06 21:37 | 51.15229 | -0.18101 | 205 ft | 16 kts | 189° |
| 2026-05-06 21:37 | 51.15199 | -0.18193 | 211 ft | 18 kts | 256° |
| 2026-05-06 21:37 | 51.15168 | -0.18462 | 211 ft | 27 kts | 258° |
| 2026-05-06 21:37 | 51.15127 | -0.18764 | 211 ft | 28 kts | 257° |
| 2026-05-06 21:38 | 51.15086 | -0.19073 | 215 ft | 29 kts | 258° |
| 2026-05-06 21:38 | 51.15042 | -0.19381 | 214 ft | 27 kts | 257° |
| 2026-05-06 21:38 | 51.15001 | -0.19674 | 208 ft | 28 kts | 257° |
| 2026-05-06 21:38 | 51.14959 | -0.19974 | 205 ft | 28 kts | 257° |
| 2026-05-06 21:39 | 51.14918 | -0.20281 | 205 ft | 29 kts | 258° |
| 2026-05-06 21:39 | 51.14882 | -0.20543 | 215 ft | 24 kts | 258° |
| 2026-05-06 21:39 | 51.14845 | -0.20812 | 205 ft | 25 kts | 258° |
| 2026-05-06 21:39 | 51.14805 | -0.21091 | 206 ft | 24 kts | 258° |
| 2026-05-06 21:40 | 51.14771 | -0.21275 | 205 ft | 18 kts | 257° |
| 2026-05-06 21:40 | 51.14740 | -0.21396 | 209 ft | 17 kts | 217° |
| 2026-05-06 21:40 | 51.14640 | -0.21339 | 208 ft | 13 kts | 157° |
| 2026-05-06 21:40 | 51.14629 | -0.21334 | 207 ft | 0 kts | 167° |
| 2026-05-06 21:44 | 51.14581 | -0.21315 | 211 ft | 16 kts | 162° |
| 2026-05-06 21:44 | 51.14520 | -0.21170 | 206 ft | 17 kts | 85° |
| 2026-05-06 21:45 | 51.14534 | -0.21067 | 207 ft | 0 kts | 78° |
| 2026-05-06 21:45 | 51.14534 | -0.21066 | 209 ft | 1 kts | 78° |
| 2026-05-06 21:46 | 51.14570 | -0.20803 | 212 ft | 60 kts | 77° |
| 2026-05-06 21:46 | 51.14710 | -0.19793 | 208 ft | 124 kts | 78° |
| 2026-05-06 21:46 | 51.14932 | -0.18187 | 238 ft | 169 kts | 78° |
| 2026-05-06 21:46 | 51.15197 | -0.16279 | 666 ft | 183 kts | 78° |
| 2026-05-06 21:47 | 51.15479 | -0.14265 | 1406 ft | 187 kts | 75° |
| 2026-05-06 21:47 | 51.15777 | -0.12121 | 1789 ft | 210 kts | 76° |
| 2026-05-06 21:47 | 51.16106 | -0.09720 | 2178 ft | 234 kts | 76° |
| 2026-05-06 21:47 | 51.16533 | -0.07113 | 2737 ft | 250 kts | 64° |
| 2026-05-06 21:48 | 51.17505 | -0.04786 | 3547 ft | 256 kts | 52° |
| 2026-05-06 21:48 | 51.18604 | -0.02523 | 4403 ft | 261 kts | 51° |
| 2026-05-06 21:48 | 51.19726 | -0.00218 | 5232 ft | 266 kts | 51° |
| 2026-05-06 21:48 | 51.20863 | 0.02127 | 6128 ft | 269 kts | 52° |
| 2026-05-06 21:49 | 51.22015 | 0.04509 | 6959 ft | 272 kts | 52° |
| 2026-05-06 21:49 | 51.23178 | 0.06916 | 7746 ft | 276 kts | 52° |
| 2026-05-06 21:49 | 51.24347 | 0.09368 | 8530 ft | 280 kts | 54° |
| 2026-05-06 21:49 | 51.25174 | 0.12207 | 9297 ft | 287 kts | 75° |
| 2026-05-06 21:50 | 51.25572 | 0.15353 | 10056 ft | 291 kts | 78° |
| 2026-05-06 21:50 | 51.25950 | 0.18552 | 10762 ft | 295 kts | 78° |
| 2026-05-06 21:50 | 51.26327 | 0.21791 | 11477 ft | 299 kts | 78° |
| 2026-05-06 21:50 | 51.26709 | 0.25068 | 12168 ft | 302 kts | 78° |
| 2026-05-06 21:51 | 51.27110 | 0.28365 | 12883 ft | 305 kts | 74° |
| 2026-05-06 21:51 | 51.27985 | 0.31443 | 13567 ft | 306 kts | 52° |
| 2026-05-06 21:51 | 51.29508 | 0.33793 | 14197 ft | 307 kts | 31° |
| 2026-05-06 21:51 | 51.31471 | 0.35090 | 14815 ft | 307 kts | 9° |
| 2026-05-06 21:52 | 51.33596 | 0.35163 | 15415 ft | 308 kts | 348° |
| 2026-05-06 21:52 | 51.35629 | 0.34100 | 16011 ft | 309 kts | 336° |
| 2026-05-06 21:52 | 51.37605 | 0.32812 | 16609 ft | 312 kts | 336° |
| 2026-05-06 21:52 | 51.39626 | 0.31490 | 17239 ft | 315 kts | 336° |
| 2026-05-06 21:53 | 51.41669 | 0.30157 | 17853 ft | 318 kts | 336° |
| 2026-05-06 21:53 | 51.43731 | 0.28814 | 18448 ft | 321 kts | 336° |
| 2026-05-06 21:53 | 51.45839 | 0.27441 | 18981 ft | 324 kts | 336° |
| 2026-05-06 21:53 | 51.47909 | 0.26089 | 19503 ft | 327 kts | 336° |
| 2026-05-06 21:54 | 51.50027 | 0.24704 | 19933 ft | 330 kts | 336° |
| 2026-05-06 21:54 | 51.52166 | 0.23311 | 20047 ft | 338 kts | 336° |
| 2026-05-06 21:54 | 51.54405 | 0.21846 | 20055 ft | 357 kts | 336° |
| 2026-05-06 21:54 | 51.56765 | 0.20296 | 20055 ft | 374 kts | 336° |
| 2026-05-06 21:55 | 51.59192 | 0.18706 | 20048 ft | 378 kts | 336° |
| 2026-05-06 21:55 | 51.61632 | 0.17109 | 20050 ft | 379 kts | 335° |
| 2026-05-06 21:55 | 51.63969 | 0.15164 | 20053 ft | 378 kts | 326° |
| 2026-05-06 21:55 | 51.66103 | 0.12634 | 20052 ft | 388 kts | 317° |
| 2026-05-06 21:56 | 51.68070 | 0.09524 | 20049 ft | 403 kts | 313° |
| 2026-05-06 21:56 | 51.70041 | 0.06270 | 20050 ft | 407 kts | 313° |
| 2026-05-06 21:56 | 51.72023 | 0.03006 | 20055 ft | 408 kts | 313° |
| 2026-05-06 21:56 | 51.74012 | -0.00270 | 20068 ft | 408 kts | 313° |
| 2026-05-06 21:57 | 51.75997 | -0.03541 | 20068 ft | 408 kts | 313° |
| 2026-05-06 21:57 | 51.77984 | -0.06814 | 20075 ft | 408 kts | 313° |
| 2026-05-06 21:57 | 51.79969 | -0.10090 | 20068 ft | 408 kts | 313° |
| 2026-05-06 21:57 | 51.81956 | -0.13372 | 20066 ft | 408 kts | 313° |
| 2026-05-06 21:58 | 51.83943 | -0.16658 | 20045 ft | 408 kts | 313° |
| 2026-05-06 21:58 | 51.85925 | -0.19945 | 20048 ft | 408 kts | 313° |
| 2026-05-06 21:58 | 51.87904 | -0.23234 | 20062 ft | 408 kts | 313° |
| 2026-05-06 21:58 | 51.89885 | -0.26529 | 20050 ft | 408 kts | 313° |
| 2026-05-06 21:59 | 51.91864 | -0.29821 | 20060 ft | 408 kts | 313° |
| 2026-05-06 21:59 | 51.93844 | -0.33122 | 20050 ft | 408 kts | 313° |
| 2026-05-06 21:59 | 51.95822 | -0.36423 | 20057 ft | 408 kts | 313° |
| 2026-05-06 21:59 | 51.97804 | -0.39738 | 20055 ft | 408 kts | 313° |
| 2026-05-06 22:00 | 51.99778 | -0.43048 | 20045 ft | 408 kts | 313° |
| 2026-05-06 22:00 | 52.01752 | -0.46363 | 20045 ft | 408 kts | 313° |
| 2026-05-06 22:00 | 52.03727 | -0.49677 | 20050 ft | 408 kts | 313° |
| 2026-05-06 22:00 | 52.05702 | -0.52990 | 20040 ft | 409 kts | 313° |
| 2026-05-06 22:01 | 52.07679 | -0.56317 | 20053 ft | 409 kts | 313° |
| 2026-05-06 22:01 | 52.09652 | -0.59646 | 20050 ft | 409 kts | 313° |
| 2026-05-06 22:01 | 52.11622 | -0.62971 | 20039 ft | 408 kts | 313° |
| 2026-05-06 22:01 | 52.13592 | -0.66304 | 20035 ft | 408 kts | 313° |
| 2026-05-06 22:02 | 52.15558 | -0.69635 | 20035 ft | 408 kts | 313° |
| 2026-05-06 22:02 | 52.17524 | -0.72966 | 20048 ft | 408 kts | 313° |
| 2026-05-06 22:02 | 52.19491 | -0.76305 | 20039 ft | 408 kts | 313° |
| 2026-05-06 22:02 | 52.21427 | -0.79597 | 20046 ft | 408 kts | 313° |
| 2026-05-06 22:03 | 52.23392 | -0.82930 | 20039 ft | 408 kts | 314° |
| 2026-05-06 22:03 | 52.25549 | -0.85951 | 20037 ft | 409 kts | 323° |
| 2026-05-06 22:03 | 52.27951 | -0.88436 | 20051 ft | 409 kts | 328° |
| 2026-05-06 22:03 | 52.30389 | -0.90848 | 20038 ft | 409 kts | 328° |
| 2026-05-06 22:04 | 52.32822 | -0.93261 | 20041 ft | 409 kts | 327° |
| 2026-05-06 22:04 | 52.35256 | -0.95680 | 20038 ft | 409 kts | 327° |
| 2026-05-06 22:04 | 52.37686 | -0.98103 | 20040 ft | 409 kts | 327° |
| 2026-05-06 22:04 | 52.40114 | -1.00531 | 20038 ft | 409 kts | 327° |
| 2026-05-06 22:05 | 52.42541 | -1.02964 | 20042 ft | 409 kts | 327° |
| 2026-05-06 22:05 | 52.44972 | -1.05401 | 20029 ft | 409 kts | 327° |
| 2026-05-06 22:05 | 52.47400 | -1.07840 | 20026 ft | 409 kts | 327° |
| 2026-05-06 22:05 | 52.49828 | -1.10281 | 20022 ft | 409 kts | 327° |
| 2026-05-06 22:06 | 52.52257 | -1.12725 | 20018 ft | 409 kts | 327° |
| 2026-05-06 22:06 | 52.54682 | -1.15168 | 20012 ft | 409 kts | 327° |
| 2026-05-06 22:06 | 52.57105 | -1.17613 | 20008 ft | 409 kts | 327° |
| 2026-05-06 22:06 | 52.59530 | -1.20059 | 20006 ft | 409 kts | 327° |
| 2026-05-06 22:07 | 52.61953 | -1.22503 | 20001 ft | 409 kts | 327° |
| 2026-05-06 22:07 | 52.64376 | -1.24953 | 19998 ft | 409 kts | 327° |
| 2026-05-06 22:07 | 52.66800 | -1.27414 | 19998 ft | 409 kts | 327° |
| 2026-05-06 22:07 | 52.69223 | -1.29873 | 20001 ft | 409 kts | 327° |
| 2026-05-06 22:08 | 52.71617 | -1.32304 | 20002 ft | 409 kts | 327° |
| 2026-05-06 22:08 | 52.74018 | -1.34743 | 20078 ft | 398 kts | 327° |
| 2026-05-06 22:08 | 52.76357 | -1.37120 | 20084 ft | 393 kts | 327° |
| 2026-05-06 22:08 | 52.78676 | -1.39484 | 20082 ft | 391 kts | 327° |
| 2026-05-06 22:09 | 52.80988 | -1.41849 | 20082 ft | 391 kts | 327° |
| 2026-05-06 22:09 | 52.83298 | -1.44217 | 20085 ft | 391 kts | 327° |
| 2026-05-06 22:09 | 52.85613 | -1.46594 | 20082 ft | 391 kts | 327° |
| 2026-05-06 22:09 | 52.87923 | -1.48967 | 20082 ft | 391 kts | 327° |
| 2026-05-06 22:10 | 52.90234 | -1.51341 | 20080 ft | 391 kts | 327° |
| 2026-05-06 22:10 | 52.92543 | -1.53716 | 20081 ft | 391 kts | 327° |
| 2026-05-06 22:10 | 52.94843 | -1.56083 | 19724 ft | 387 kts | 327° |
| 2026-05-06 22:10 | 52.97126 | -1.58436 | 19221 ft | 386 kts | 327° |
| 2026-05-06 22:11 | 52.99401 | -1.60780 | 18746 ft | 383 kts | 327° |
| 2026-05-06 22:11 | 53.01656 | -1.63107 | 18257 ft | 381 kts | 326° |
| 2026-05-06 22:11 | 53.03735 | -1.65769 | 17746 ft | 375 kts | 314° |
| 2026-05-06 22:11 | 53.05381 | -1.69085 | 17244 ft | 370 kts | 302° |
| 2026-05-06 22:12 | 53.06535 | -1.72875 | 16738 ft | 366 kts | 289° |
| 2026-05-06 22:12 | 53.07323 | -1.76892 | 16243 ft | 364 kts | 287° |
| 2026-05-06 22:12 | 53.08092 | -1.80889 | 15808 ft | 360 kts | 287° |
| 2026-05-06 22:12 | 53.08840 | -1.84777 | 15373 ft | 346 kts | 287° |
| 2026-05-06 22:13 | 53.09560 | -1.88520 | 14871 ft | 333 kts | 287° |
| 2026-05-06 22:13 | 53.10252 | -1.92123 | 14381 ft | 322 kts | 287° |
| 2026-05-06 22:13 | 53.10923 | -1.95613 | 13899 ft | 311 kts | 288° |
| 2026-05-06 22:13 | 53.11572 | -1.98997 | 13361 ft | 303 kts | 288° |
| 2026-05-06 22:14 | 53.12203 | -2.02293 | 12812 ft | 295 kts | 288° |
| 2026-05-06 22:14 | 53.12817 | -2.05503 | 12300 ft | 289 kts | 288° |
| 2026-05-06 22:14 | 53.13421 | -2.08670 | 11782 ft | 285 kts | 288° |
| 2026-05-06 22:14 | 53.14018 | -2.11820 | 11274 ft | 287 kts | 288° |
| 2026-05-06 22:15 | 53.14609 | -2.15020 | 10775 ft | 294 kts | 284° |
| 2026-05-06 22:15 | 53.14919 | -2.18608 | 10272 ft | 323 kts | 276° |
| 2026-05-06 22:15 | 53.15112 | -2.22322 | 9773 ft | 322 kts | 275° |
| 2026-05-06 22:15 | 53.15293 | -2.26033 | 9225 ft | 321 kts | 275° |
| 2026-05-06 22:16 | 53.15466 | -2.29675 | 8702 ft | 319 kts | 275° |
| 2026-05-06 22:16 | 53.15644 | -2.33350 | 8183 ft | 318 kts | 275° |
| 2026-05-06 22:16 | 53.15822 | -2.37005 | 7663 ft | 315 kts | 275° |
| 2026-05-06 22:16 | 53.16002 | -2.40636 | 7155 ft | 314 kts | 275° |
| 2026-05-06 22:17 | 53.16408 | -2.44173 | 6643 ft | 307 kts | 291° |
| 2026-05-06 22:17 | 53.17453 | -2.47157 | 6127 ft | 293 kts | 310° |
| 2026-05-06 22:17 | 53.18893 | -2.49461 | 5433 ft | 284 kts | 317° |
| 2026-05-06 22:17 | 53.20536 | -2.51405 | 4170 ft | 298 kts | 339° |
| 2026-05-06 22:18 | 53.22569 | -2.51667 | 3452 ft | 292 kts | 15° |
| 2026-05-06 22:18 | 53.24243 | -2.50082 | 3128 ft | 269 kts | 50° |
| 2026-05-06 22:18 | 53.25279 | -2.47605 | 2787 ft | 254 kts | 58° |
| 2026-05-06 22:18 | 53.26292 | -2.45280 | 2444 ft | 238 kts | 54° |
| 2026-05-06 22:19 | 53.27286 | -2.43231 | 2143 ft | 219 kts | 54° |
| 2026-05-06 22:19 | 53.28226 | -2.41310 | 1841 ft | 207 kts | 54° |
| 2026-05-06 22:19 | 53.29108 | -2.39498 | 1554 ft | 195 kts | 54° |
| 2026-05-06 22:19 | 53.29939 | -2.37789 | 1332 ft | 181 kts | 54° |
| 2026-05-06 22:20 | 53.30697 | -2.36229 | 1036 ft | 163 kts | 53° |
| 2026-05-06 22:20 | 53.31376 | -2.34829 | 810 ft | 149 kts | 53° |
| 2026-05-06 22:20 | 53.32008 | -2.33524 | 605 ft | 142 kts | 52° |
| 2026-05-06 22:20 | 53.32623 | -2.32247 | 417 ft | 140 kts | 51° |
| 2026-05-06 22:21 | 53.33235 | -2.30984 | 249 ft | 139 kts | 51° |
| 2026-05-06 22:21 | 53.33793 | -2.29840 | 211 ft | 106 kts | 51° |
| 2026-05-06 22:21 | 53.34145 | -2.29106 | 223 ft | 56 kts | 51° |
| 2026-05-06 22:21 | 53.34313 | -2.28763 | 221 ft | 32 kts | 50° |
| 2026-05-06 22:22 | 53.34461 | -2.28568 | 224 ft | 22 kts | 30° |
| 2026-05-06 22:22 | 53.34579 | -2.28488 | 226 ft | 16 kts | 21° |
| 2026-05-06 22:22 | 53.34689 | -2.28415 | 226 ft | 18 kts | 22° |
| 2026-05-06 22:22 | 53.34775 | -2.28270 | 228 ft | 18 kts | 52° |
| 2026-05-06 22:23 | 53.34854 | -2.28105 | 230 ft | 18 kts | 50° |
| 2026-05-06 22:23 | 53.34937 | -2.27932 | 232 ft | 20 kts | 52° |
| 2026-05-06 22:23 | 53.35028 | -2.27748 | 234 ft | 22 kts | 51° |
| 2026-05-06 22:23 | 53.35132 | -2.27533 | 237 ft | 25 kts | 51° |
| 2026-05-06 22:24 | 53.35244 | -2.27303 | 239 ft | 24 kts | 51° |
| 2026-05-06 22:24 | 53.35340 | -2.27191 | 240 ft | 0 kts | 358° |
| 2026-05-06 22:24 | 53.35355 | -2.27193 | 240 ft | 7 kts | 356° |
| 2026-05-06 22:24 | 53.35430 | -2.27265 | 241 ft | 19 kts | 318° |
| 2026-05-06 22:25 | 53.35550 | -2.27428 | 241 ft | 21 kts | 320° |
| 2026-05-06 22:25 | 53.35666 | -2.27584 | 240 ft | 22 kts | 320° |
| 2026-05-06 22:25 | 53.35762 | -2.27607 | 241 ft | 13 kts | 58° |
| 2026-05-06 22:25 | 53.35806 | -2.27509 | 242 ft | 6 kts | 50° |
| 2026-05-06 22:26 | 53.35817 | -2.27487 | 242 ft | 0 kts | 50° |